Terminal Aerodrome Forecast
Issued by NWS Wilmington, OH

Current Version | Previous Version | Graphics & Text | Print | Product List | Glossary On
Versions: 1 2 3 4 5 6 7 8 9 10 11 12 13 14 15 16 17 18 19
000
FTUS41 KILN 212341
TAFCMH
TAF
KCMH 212341Z 2200/2224 19004KT P6SM VCSH OVC080
     FM220700 00000KT 5SM BR VCSH OVC035
     FM220900 00000KT 4SM BR OVC015
     FM221100 00000KT 3SM BR OVC008
     FM221500 20004KT P6SM BKN008
     FM221800 19004KT P6SM BKN015=

USA.gov is the U.S. government's official web portal to all federal, state and local government web resources and services.